createdAt,value
2018-10-19T00:01:29.540Z,95.41
2018-10-19T00:03:58.391Z,95.41
2018-10-19T00:06:27.129Z,96.28
2018-10-19T00:08:56.919Z,95.02
2018-10-19T00:11:25.761Z,95.34
2018-10-19T00:13:54.672Z,95.76
2018-10-19T00:16:23.615Z,95.45
2018-10-19T00:18:52.871Z,95.69
2018-10-19T00:21:21.607Z,95.28
2018-10-19T00:23:50.275Z,95.28
2018-10-19T00:26:19.093Z,95.58
2018-10-19T00:28:52.192Z,96.12
2018-10-19T00:31:20.908Z,95.27
2018-10-19T00:33:49.729Z,95.76
2018-10-19T00:36:18.600Z,95.51
2018-10-19T00:38:47.371Z,95.89
2018-10-19T00:41:16.090Z,95.49
2018-10-19T00:43:44.780Z,95.98
2018-10-19T00:46:13.561Z,95.35
2018-10-19T00:48:42.260Z,95.41
2018-10-19T00:51:11.076Z,95.41
2018-10-19T00:53:40.587Z,96.08
2018-10-19T00:56:09.455Z,95.45
2018-10-19T00:58:38.289Z,96.53
2018-10-19T01:01:06.979Z,95.94
2018-10-19T01:03:35.857Z,96.75
2018-10-19T01:06:04.692Z,96.56
2018-10-19T01:08:33.313Z,95.62
2018-10-19T01:11:02.130Z,96.57
2018-10-19T01:13:30.884Z,96.21
2018-10-19T01:15:59.551Z,96.88
2018-10-19T01:18:28.155Z,95.76
2018-10-19T01:20:56.826Z,96.22
2018-10-19T01:23:25.459Z,96.45
2018-10-19T01:25:54.254Z,96.50
2018-10-19T01:28:22.979Z,96.37
2018-10-19T01:30:51.543Z,97.01
2018-10-19T01:33:20.261Z,97.04
2018-10-19T01:35:48.842Z,96.50
2018-10-19T01:38:17.666Z,96.83
2018-10-19T01:40:46.375Z,96.19
2018-10-19T01:43:15.212Z,96.66
2018-10-19T01:45:49.274Z,97.55
2018-10-19T01:48:18.062Z,96.37
2018-10-19T01:50:46.847Z,96.28
2018-10-19T01:53:15.672Z,96.96
2018-10-19T01:55:44.483Z,96.64
2018-10-19T01:58:13.419Z,96.82
2018-10-19T02:00:42.155Z,96.89
2018-10-19T02:03:10.996Z,97.07
2018-10-19T02:05:40.373Z,96.77
2018-10-19T02:08:10.441Z,96.30
2018-10-19T02:10:39.168Z,96.69
2018-10-19T02:13:08.498Z,96.47
2018-10-19T02:15:37.583Z,96.97
2018-10-19T02:18:06.256Z,96.98
2018-10-19T02:20:35.056Z,96.04
2018-10-19T02:23:03.650Z,97.17
2018-10-19T02:25:32.461Z,96.69
2018-10-19T02:28:01.294Z,96.68
2018-10-19T02:30:29.894Z,96.36
2018-10-19T02:32:58.632Z,96.24
2018-10-19T02:35:27.457Z,96.71
2018-10-19T02:37:56.239Z,96.99
2018-10-19T02:40:25.002Z,96.25
2018-10-19T02:42:53.662Z,96.63
2018-10-19T02:45:22.319Z,96.80
2018-10-19T02:47:50.846Z,97.23
2018-10-19T02:50:19.539Z,96.44
2018-10-19T02:52:48.210Z,97.48
2018-10-19T02:55:17.248Z,97.11
2018-10-19T02:57:45.889Z,96.29
2018-10-19T03:00:14.533Z,97.41
2018-10-19T03:02:43.266Z,96.68
2018-10-19T03:05:12.012Z,97.35
2018-10-19T03:07:41.162Z,96.70
2018-10-19T03:10:10.532Z,96.32
2018-10-19T03:12:39.112Z,96.20
2018-10-19T03:15:08.414Z,96.59
2018-10-19T03:17:37.210Z,96.31
2018-10-19T03:20:07.287Z,96.87
2018-10-19T03:22:36.437Z,96.02
2018-10-19T03:25:05.297Z,96.16
2018-10-19T03:27:35.001Z,97.06
2018-10-19T03:30:03.683Z,97.03
2018-10-19T03:32:32.414Z,96.90
2018-10-19T03:35:01.075Z,96.82
2018-10-19T03:37:29.657Z,96.95
2018-10-19T03:39:58.333Z,97.25
2018-10-19T03:42:26.923Z,96.71
2018-10-19T03:44:55.914Z,96.77
2018-10-19T03:47:24.642Z,97.15
2018-10-19T03:49:53.270Z,96.95
2018-10-19T03:52:22.043Z,96.70
2018-10-19T03:54:50.648Z,96.08
2018-10-19T03:57:19.485Z,96.65
2018-10-19T03:59:48.022Z,96.88
2018-10-19T04:02:16.733Z,96.90
2018-10-19T04:04:45.370Z,97.12
2018-10-19T04:07:14.305Z,96.95
2018-10-19T04:09:42.978Z,96.80
2018-10-19T04:12:11.651Z,96.73
2018-10-19T04:14:40.379Z,97.39
2018-10-19T04:17:09.251Z,97.71
2018-10-19T04:19:37.920Z,98.05
2018-10-19T04:22:06.558Z,96.96
2018-10-19T04:24:35.573Z,98.32
2018-10-19T04:27:04.380Z,97.70
2018-10-19T04:29:32.995Z,98.35
2018-10-19T04:32:01.755Z,97.89
2018-10-19T04:34:30.461Z,98.14
2018-10-19T04:37:03.428Z,98.00
2018-10-19T04:39:32.235Z,97.64
2018-10-19T04:42:01.390Z,97.53
2018-10-19T04:44:30.038Z,97.09
2018-10-19T04:46:58.754Z,97.75
2018-10-19T04:49:27.862Z,96.53
2018-10-19T04:51:56.542Z,97.37
2018-10-19T04:54:25.237Z,97.19
2018-10-19T04:56:53.996Z,97.19
2018-10-19T04:59:22.655Z,97.54
2018-10-19T05:01:51.356Z,97.49
2018-10-19T05:04:20.037Z,97.39
2018-10-19T05:06:48.872Z,97.27
2018-10-19T05:09:17.447Z,97.51
2018-10-19T05:11:46.105Z,97.00
2018-10-19T05:14:14.782Z,96.96
2018-10-19T05:16:43.407Z,97.77
2018-10-19T05:19:12.153Z,97.57
2018-10-19T05:21:40.834Z,97.39
2018-10-19T05:24:09.523Z,97.57
2018-10-19T05:26:38.172Z,97.04
2018-10-19T05:29:07.091Z,97.67
2018-10-19T05:31:35.760Z,97.70
2018-10-19T05:34:04.474Z,96.66
2018-10-19T05:36:35.900Z,97.84
2018-10-19T05:39:06.796Z,96.77
2018-10-19T05:41:35.479Z,97.57
2018-10-19T05:44:04.476Z,97.61
2018-10-19T05:46:33.232Z,97.36
2018-10-19T05:49:02.028Z,97.57
2018-10-19T05:51:30.724Z,96.66
2018-10-19T05:53:59.524Z,97.03
2018-10-19T05:56:28.282Z,97.22
2018-10-19T05:58:57.027Z,97.07
2018-10-19T06:01:25.725Z,97.46
2018-10-19T06:03:54.459Z,96.83
2018-10-19T06:06:23.241Z,97.31
2018-10-19T06:08:52.043Z,97.69
2018-10-19T06:11:20.737Z,97.22
2018-10-19T06:13:49.633Z,97.77
2018-10-19T06:16:18.487Z,97.33
2018-10-19T06:18:47.191Z,96.83
2018-10-19T06:21:16.287Z,97.82
2018-10-19T06:23:45.003Z,97.49
2018-10-19T06:26:13.833Z,96.89
2018-10-19T06:28:42.617Z,97.06
2018-10-19T06:31:11.345Z,97.97
2018-10-19T06:33:40.202Z,97.68
2018-10-19T06:36:08.883Z,97.30
2018-10-19T06:38:39.697Z,97.61
2018-10-19T06:41:08.731Z,98.41
2018-10-19T06:43:38.244Z,97.30
2018-10-19T06:46:07.029Z,98.14
2018-10-19T06:48:35.875Z,98.28
2018-10-19T06:51:04.765Z,97.97
2018-10-19T06:53:34.192Z,98.09
2018-10-19T06:56:02.976Z,97.62
2018-10-19T06:58:37.186Z,98.34
2018-10-19T07:01:06.636Z,97.30
2018-10-19T07:03:35.289Z,97.57
2018-10-19T07:06:03.991Z,98.25
2018-10-19T07:08:37.077Z,98.08
2018-10-19T07:11:07.671Z,98.02
2018-10-19T07:13:36.543Z,97.89
2018-10-19T07:16:05.486Z,98.35
2018-10-19T07:18:34.699Z,97.72
2018-10-19T07:21:04.012Z,97.40
2018-10-19T07:23:33.691Z,97.97
2018-10-19T07:26:37.323Z,98.11
2018-10-19T07:29:10.699Z,98.66
2018-10-19T07:31:40.123Z,98.20
2018-10-19T07:34:14.958Z,98.70
2018-10-19T07:36:43.924Z,98.11
2018-10-19T07:39:13.035Z,98.46
2018-10-19T07:41:43.270Z,98.45
2018-10-19T07:44:12.023Z,98.16
2018-10-19T07:46:40.992Z,98.71
2018-10-19T07:49:10.208Z,98.11
2018-10-19T07:51:46.846Z,98.44
2018-10-19T07:54:15.676Z,97.78
2018-10-19T07:56:44.542Z,97.83
2018-10-19T07:59:13.840Z,98.49
2018-10-19T08:01:43.112Z,98.12
2018-10-19T08:04:12.328Z,98.31
2018-10-19T08:06:41.063Z,98.35
2018-10-19T08:09:11.161Z,98.11
2018-10-19T08:11:43.473Z,98.44
2018-10-19T08:14:12.711Z,98.14
2018-10-19T08:16:41.630Z,98.11
2018-10-19T08:19:10.497Z,98.01
2018-10-19T08:21:40.417Z,97.80
2018-10-19T08:24:09.252Z,98.01
2018-10-19T08:26:38.133Z,97.96
2018-10-19T08:29:07.350Z,97.67
2018-10-19T08:31:37.250Z,97.30
2018-10-19T08:34:06.391Z,97.67
2018-10-19T08:36:35.236Z,98.12
2018-10-19T08:39:04.995Z,97.61
2018-10-19T08:41:35.060Z,97.87
2018-10-19T08:44:03.939Z,97.82
2018-10-19T08:46:38.174Z,97.76
2018-10-19T08:49:09.185Z,97.14
2018-10-19T08:51:47.068Z,97.35
2018-10-19T08:54:16.152Z,97.11
2018-10-19T08:56:45.073Z,97.19
2018-10-19T08:59:14.234Z,96.74
2018-10-19T09:01:43.574Z,96.14
2018-10-19T09:04:12.839Z,96.19
2018-10-19T09:06:42.029Z,96.23
2018-10-19T09:09:11.677Z,96.37
2018-10-19T09:11:48.559Z,96.20
2018-10-19T09:14:28.416Z,96.01
2018-10-19T09:16:57.469Z,95.96
2018-10-19T09:19:26.736Z,95.91
2018-10-19T09:22:01.033Z,95.86
2018-10-19T09:24:29.870Z,95.64
2018-10-19T09:26:59.083Z,95.38
2018-10-19T09:29:28.085Z,95.45
2018-10-19T09:31:58.118Z,95.61
2018-10-19T09:34:27.067Z,95.29
2018-10-19T09:36:55.965Z,95.52
2018-10-19T09:39:25.128Z,94.99
2018-10-19T09:42:01.946Z,95.20
2018-10-19T09:44:30.753Z,94.99
2018-10-19T09:46:59.634Z,94.80
2018-10-19T09:49:28.402Z,94.23
2018-10-19T09:51:57.610Z,94.58
2018-10-19T09:54:26.517Z,94.68
2018-10-19T09:56:55.374Z,94.47
2018-10-19T09:59:25.602Z,94.17
2018-10-19T10:02:02.259Z,94.16
2018-10-19T10:04:31.294Z,94.21
2018-10-19T10:07:00.601Z,94.00
2018-10-19T10:09:29.690Z,94.00
2018-10-19T10:11:58.616Z,93.81
2018-10-19T10:14:27.613Z,93.62
2018-10-19T10:16:56.519Z,93.05
2018-10-19T10:19:25.908Z,93.19
2018-10-19T10:22:02.396Z,93.07
2018-10-19T10:24:31.251Z,92.95
2018-10-19T10:27:00.329Z,92.74
2018-10-19T10:29:29.900Z,92.57
2018-10-19T10:32:06.325Z,92.02
2018-10-19T10:34:35.860Z,92.22
2018-10-19T10:37:04.570Z,91.78
2018-10-19T10:39:33.370Z,91.62
2018-10-19T10:42:03.200Z,90.77
2018-10-19T10:44:31.931Z,90.80
2018-10-19T10:47:00.844Z,90.83
2018-10-19T10:49:29.772Z,90.53
2018-10-19T10:52:06.443Z,89.99
2018-10-19T10:54:35.134Z,89.42
2018-10-19T10:57:03.884Z,89.71
2018-10-19T10:59:32.639Z,89.44
2018-10-19T11:02:02.569Z,89.31
2018-10-19T11:04:31.571Z,88.97
2018-10-19T11:07:01.285Z,87.88
2018-10-19T11:09:29.923Z,87.30
2018-10-19T11:12:06.659Z,87.01
2018-10-19T11:14:35.521Z,86.40
2018-10-19T11:17:04.557Z,85.77
2018-10-19T11:19:33.970Z,85.67
2018-10-19T11:22:03.144Z,84.56
2018-10-19T11:24:31.839Z,84.45
2018-10-19T11:27:00.855Z,81.82
2018-10-19T11:29:29.590Z,82.33
2018-10-19T11:32:12.270Z,82.72
2018-10-19T11:34:41.140Z,81.12
2018-10-19T11:37:10.407Z,80.92
2018-10-19T11:39:51.955Z,79.34
2018-10-19T11:42:28.202Z,78.86
2018-10-19T11:44:57.364Z,78.19
2018-10-19T11:47:26.155Z,78.42
2018-10-19T11:49:55.129Z,78.03
2018-10-19T11:52:25.997Z,78.23
2018-10-19T11:54:54.791Z,77.53
2018-10-19T11:57:23.677Z,76.69
2018-10-19T11:59:52.439Z,76.92
2018-10-19T12:02:21.779Z,74.76
2018-10-19T12:04:50.625Z,75.04
2018-10-19T12:07:19.403Z,74.68
2018-10-19T12:09:48.104Z,74.47
2018-10-19T12:12:20.887Z,73.23
2018-10-19T12:14:49.753Z,73.33
2018-10-19T12:17:18.976Z,71.61
2018-10-19T12:19:48.174Z,70.92
2018-10-19T12:22:17.249Z,70.39
2018-10-19T12:24:46.237Z,68.44
2018-10-19T12:27:15.171Z,67.63
2018-10-19T12:29:43.862Z,65.86
2018-10-19T12:32:20.156Z,65.37
2018-10-19T12:34:49.200Z,64.74
2018-10-19T12:37:18.794Z,64.13
2018-10-19T12:39:48.172Z,60.71
2018-10-19T12:42:17.096Z,60.77
2018-10-19T12:44:46.076Z,62.03
2018-10-19T12:47:32.122Z,61.80
2018-10-19T12:50:01.221Z,61.44
2018-10-19T12:52:37.809Z,62.56
2018-10-19T12:55:08.327Z,60.93
2018-10-19T12:57:37.477Z,59.22
2018-10-19T13:00:07.595Z,58.93
2018-10-19T13:02:44.034Z,59.21
2018-10-19T13:05:13.066Z,59.48
2018-10-19T13:07:41.829Z,60.26
2018-10-19T13:10:11.206Z,59.39
2018-10-19T13:12:47.376Z,58.75
2018-10-19T13:15:17.050Z,59.04
2018-10-19T13:17:45.848Z,59.51
2018-10-19T13:20:15.084Z,59.32
2018-10-19T13:22:44.346Z,59.92
2018-10-19T13:25:13.128Z,59.36
2018-10-19T13:27:41.915Z,57.79
2018-10-19T13:30:10.717Z,60.28
2018-10-19T13:32:42.756Z,51.58
2018-10-19T13:35:11.884Z,53.12
2018-10-19T13:37:40.805Z,52.44
2018-10-19T13:40:09.784Z,52.08
2018-10-19T13:42:38.714Z,53.96
2018-10-19T13:45:07.485Z,52.90
2018-10-19T13:47:36.757Z,51.93
2018-10-19T13:50:05.816Z,51.76
2018-10-19T13:52:44.156Z,48.78
2018-10-19T13:55:13.144Z,44.99
2018-10-19T13:57:42.255Z,41.69
2018-10-19T14:00:11.031Z,43.04
2018-10-19T14:02:43.279Z,44.82
2018-10-19T14:05:12.619Z,44.85
2018-10-19T14:07:41.687Z,41.02
2018-10-19T14:10:11.453Z,40.22
2018-10-19T14:13:07.679Z,38.64
2018-10-19T14:15:36.728Z,38.81
2018-10-19T14:18:06.135Z,36.64
2018-10-19T14:20:35.145Z,38.56
2018-10-19T14:23:04.090Z,39.36
2018-10-19T14:25:33.166Z,39.36
2018-10-19T14:28:02.270Z,38.07
2018-10-19T14:30:31.278Z,35.49
2018-10-19T14:33:01.868Z,34.32
2018-10-19T14:35:30.703Z,32.40
2018-10-19T14:37:59.860Z,29.85
2018-10-19T14:40:29.772Z,30.55
2018-10-19T14:43:06.342Z,32.84
2018-10-19T14:45:35.822Z,34.86
2018-10-19T14:48:04.715Z,37.19
2018-10-19T14:50:33.593Z,39.78
2018-10-19T14:53:16.372Z,41.21
2018-10-19T14:55:45.185Z,44.98
2018-10-19T14:58:13.966Z,47.29
2018-10-19T15:00:44.430Z,49.38
2018-10-19T15:03:21.324Z,50.75
2018-10-19T15:05:50.819Z,52.39
2018-10-19T15:08:19.565Z,53.57
2018-10-19T15:10:48.611Z,55.50
2018-10-19T15:13:17.446Z,54.97
2018-10-19T15:15:47.052Z,53.48
2018-10-19T15:18:15.857Z,51.62
2018-10-19T15:20:44.832Z,46.94
2018-10-19T15:23:22.590Z,45.37
2018-10-19T15:25:51.759Z,44.62
2018-10-19T15:28:20.755Z,43.24
2018-10-19T15:30:49.533Z,42.18
2018-10-19T15:33:25.529Z,41.72
2018-10-19T15:35:54.701Z,41.71
2018-10-19T15:38:23.496Z,43.07
2018-10-19T15:40:52.520Z,44.99
2018-10-19T15:43:22.301Z,45.75
2018-10-19T15:45:51.132Z,47.56
2018-10-19T15:48:20.876Z,48.87
2018-10-19T15:50:50.289Z,50.10
2018-10-19T15:53:19.438Z,51.78
2018-10-19T15:55:48.261Z,52.71
2018-10-19T15:58:17.164Z,54.23
2018-10-19T16:00:46.465Z,55.71
2018-10-19T16:03:15.422Z,57.11
2018-10-19T16:05:44.159Z,57.81
2018-10-19T16:08:12.959Z,58.44
2018-10-19T16:10:41.812Z,60.18
2018-10-19T16:13:10.629Z,61.70
2018-10-19T16:15:39.470Z,63.25
2018-10-19T16:18:08.355Z,62.92
2018-10-19T16:20:37.246Z,63.39
2018-10-19T16:23:14.750Z,63.84
2018-10-19T16:25:43.826Z,64.00
2018-10-19T16:28:12.848Z,64.56
2018-10-19T16:30:41.668Z,65.36
2018-10-19T16:33:21.167Z,66.37
2018-10-19T16:35:50.318Z,66.67
2018-10-19T16:38:19.085Z,67.49
2018-10-19T16:40:48.240Z,67.57
2018-10-19T16:43:24.630Z,68.66
2018-10-19T16:45:53.642Z,69.03
2018-10-19T16:48:23.411Z,69.80
2018-10-19T16:50:52.851Z,70.33
2018-10-19T16:53:21.618Z,70.44
2018-10-19T16:55:50.387Z,71.05
2018-10-19T16:58:19.463Z,71.25
2018-10-19T17:00:48.343Z,71.87
2018-10-19T17:03:20.919Z,72.28
2018-10-19T17:05:50.140Z,73.22
2018-10-19T17:08:18.976Z,73.08
2018-10-19T17:10:48.525Z,73.82
2018-10-19T17:13:23.436Z,74.48
2018-10-19T17:15:52.320Z,74.98
2018-10-19T17:18:21.358Z,75.76
2018-10-19T17:20:50.401Z,75.76
2018-10-19T17:23:32.993Z,76.16
2018-10-19T17:26:02.054Z,76.92
2018-10-19T17:28:44.952Z,77.07
2018-10-19T17:31:29.900Z,77.86
2018-10-19T17:34:15.650Z,77.90
2018-10-19T17:36:55.220Z,78.38
2018-10-19T17:39:24.862Z,79.16
2018-10-19T17:42:06.235Z,78.46
2018-10-19T17:52:13.449Z,80.23
2018-10-19T17:55:01.940Z,80.22
2018-10-19T17:57:32.365Z,80.71
2018-10-19T18:00:12.182Z,81.75
2018-10-19T18:02:41.443Z,81.48
2018-10-19T18:05:17.250Z,82.17
2018-10-19T18:07:47.078Z,83.07
2018-10-19T18:10:17.926Z,83.28
2018-10-19T18:12:47.372Z,82.66
2018-10-19T18:15:22.401Z,82.76
2018-10-19T18:17:51.719Z,82.69
2018-10-19T18:20:20.888Z,82.64
2018-10-19T18:22:50.311Z,82.61
2018-10-19T18:25:30.671Z,83.34
2018-10-19T18:27:59.863Z,83.22
2018-10-19T18:30:29.237Z,84.07
2018-10-19T18:32:58.432Z,84.39
2018-10-19T18:35:37.079Z,83.81
2018-10-19T18:38:08.191Z,84.68
2018-10-19T18:40:37.580Z,84.32
2018-10-19T18:43:06.842Z,84.57
2018-10-19T18:45:36.015Z,85.26
2018-10-19T18:48:05.467Z,86.02
2018-10-19T18:50:34.593Z,85.80
2018-10-19T18:53:03.622Z,85.94
2018-10-19T18:55:32.795Z,85.24
2018-10-19T18:58:06.645Z,84.72
2018-10-19T19:00:35.948Z,84.83
2018-10-19T19:03:04.909Z,85.13
2018-10-19T19:05:33.835Z,85.44
2018-10-19T19:08:03.275Z,86.04
2018-10-19T19:10:32.592Z,86.41
2018-10-19T19:13:06.693Z,86.88
2018-10-19T19:15:35.756Z,87.24
2018-10-19T19:18:04.971Z,87.02
2018-10-19T19:20:34.423Z,87.17
2018-10-19T19:23:03.657Z,87.67
2018-10-19T19:25:37.929Z,87.30
2018-10-19T19:28:07.550Z,87.47
2018-10-19T19:30:36.659Z,88.11
2018-10-19T19:33:11.379Z,88.06
2018-10-19T19:35:40.399Z,87.44
2018-10-19T19:38:09.555Z,87.94
2018-10-19T19:40:43.595Z,87.96
2018-10-19T19:43:12.568Z,87.87
2018-10-19T19:45:41.885Z,88.44
2018-10-19T19:48:16.016Z,88.47
2018-10-19T19:50:45.400Z,87.76
2018-10-19T19:53:14.710Z,88.98
2018-10-19T19:55:43.820Z,88.49
2018-10-19T19:58:13.128Z,88.67
2018-10-19T20:00:42.355Z,89.57
2018-10-19T20:03:11.936Z,89.58
2018-10-19T20:05:41.048Z,89.19
2018-10-19T20:08:10.700Z,89.20
2018-10-19T20:10:39.788Z,89.70
2018-10-19T20:13:08.809Z,88.94
2018-10-19T20:15:40.196Z,89.88
2018-10-19T20:18:09.517Z,89.70
2018-10-19T20:20:38.664Z,90.11
2018-10-19T20:23:08.215Z,90.08
2018-10-19T20:25:37.247Z,90.22
2018-10-19T20:28:06.445Z,90.42
2018-10-19T20:30:35.689Z,90.56
2018-10-19T20:33:05.221Z,89.74
2018-10-19T20:35:34.590Z,91.20
2018-10-19T20:38:03.679Z,90.36
2018-10-19T20:40:33.004Z,90.30
2018-10-19T20:43:02.244Z,90.64
2018-10-19T20:45:35.505Z,91.30
2018-10-19T20:48:04.651Z,91.06
2018-10-19T20:50:33.936Z,91.85
2018-10-19T20:53:03.061Z,91.03
2018-10-19T20:55:32.180Z,90.13
2018-10-19T20:58:01.229Z,90.02
2018-10-19T21:00:30.267Z,90.21
2018-10-19T21:02:59.332Z,90.85
2018-10-19T21:05:28.750Z,90.48
2018-10-19T21:07:58.030Z,91.29
2018-10-19T21:10:27.194Z,91.25
2018-10-19T21:12:56.333Z,90.15
2018-10-19T21:15:25.408Z,90.51
2018-10-19T21:17:54.608Z,91.38
2018-10-19T21:20:23.677Z,90.88
2018-10-19T21:22:52.700Z,91.74
2018-10-19T21:25:21.721Z,90.91
2018-10-19T21:27:50.709Z,91.53
2018-10-19T21:30:19.779Z,91.71
2018-10-19T21:32:48.815Z,91.29
2018-10-19T21:35:18.252Z,91.56
2018-10-19T21:37:47.431Z,91.25
2018-10-19T21:40:16.669Z,91.11
2018-10-19T21:42:52.787Z,91.82
2018-10-19T21:45:21.751Z,91.89
2018-10-19T21:47:50.757Z,92.04
2018-10-19T21:50:22.713Z,92.10
2018-10-19T21:52:53.225Z,91.43
2018-10-19T21:55:22.307Z,92.58
2018-10-19T21:57:51.515Z,91.61
2018-10-19T22:00:20.692Z,91.90
2018-10-19T22:02:49.767Z,91.61
2018-10-19T22:05:19.101Z,91.62
2018-10-19T22:07:48.069Z,92.48
2018-10-19T22:10:17.063Z,91.95
2018-10-19T22:12:46.203Z,91.89
2018-10-19T22:15:15.171Z,92.78
2018-10-19T22:17:44.198Z,92.36
2018-10-19T22:20:13.609Z,92.40
2018-10-19T22:22:43.019Z,92.07
2018-10-19T22:25:12.047Z,92.79
2018-10-19T22:27:41.373Z,92.40
2018-10-19T22:30:10.426Z,92.73
2018-10-19T22:32:39.849Z,93.00
2018-10-19T22:35:09.758Z,93.11
2018-10-19T22:37:39.411Z,93.69
2018-10-19T22:40:08.373Z,94.87
2018-10-19T22:42:37.456Z,95.05
2018-10-19T22:45:06.682Z,95.43
2018-10-19T22:47:36.085Z,94.56
2018-10-19T22:50:05.272Z,94.43
2018-10-19T22:52:34.364Z,94.30
2018-10-19T22:55:03.791Z,93.97
2018-10-19T22:57:32.699Z,92.92
2018-10-19T23:00:01.896Z,92.46
2018-10-19T23:02:31.253Z,92.84
2018-10-19T23:05:00.412Z,93.43
2018-10-19T23:07:29.624Z,93.24
2018-10-19T23:09:59.065Z,93.91
2018-10-19T23:12:28.096Z,93.03
2018-10-19T23:15:00.148Z,92.85
2018-10-19T23:17:29.488Z,92.80
2018-10-19T23:19:58.731Z,92.55
2018-10-19T23:22:27.804Z,93.30
2018-10-19T23:24:57.174Z,92.92
2018-10-19T23:27:26.109Z,93.68
2018-10-19T23:29:55.599Z,93.20
2018-10-19T23:32:24.611Z,93.38
2018-10-19T23:34:53.574Z,93.82
2018-10-19T23:37:22.832Z,93.57
2018-10-19T23:39:52.051Z,93.14
2018-10-19T23:42:21.249Z,93.29
2018-10-19T23:44:50.451Z,93.21
2018-10-19T23:47:19.501Z,93.13
2018-10-19T23:49:48.455Z,93.96
2018-10-19T23:52:18.250Z,93.37
2018-10-19T23:54:47.216Z,93.87
2018-10-19T23:57:16.447Z,94.95
2018-10-19T23:59:45.927Z,94.34
